Proctor, West Virginia
Current Conditions -  °F | °C
As of 12:53 AM on Monday 24 Nov 2014 (Local Time) from KHLG Reporting Station
Broken Clouds Broken Clouds  
Wind Chill: 57°   Ceiling: 9000
Heat Index: 57°   Visibility: 10mi
Dew Point: 52°   Wind: 15mph
Humidity: 83%   Direction: 150°SSE
Pressure: 29.42"   Gusts: 22mph
Location:  39.71°N, 80.82°W
Report Text: KHLG 240553Z AUTO 15013G19KT 10SM FEW047 FEW070 BKN090 14/11 A2942 RMK AO2 PK WND 15027/0502 RAE16 SLP961 P0001 60013 T01390111 10156 20122 56050
Loading
Personal Weather Stations






























Interactive Weather Map New forecast layout! Learn more

10-Day Weather Forecast

Advertisements
Track Severe Weather on mobile